Terminal Aerodrome Forecast
Issued by NWS

Home | Current Version | Previous Version | Graphics & Text | Print | Product List | Glossary On
Versions: 1 2 3 4 5 6 7 8 9 10 11 12 13 14 15 16 17 18
000
FTUS43 KMPX 230200 AAA
TAFRWF
TAF AMD
KRWF 230239Z 2303/2324 18010KT P6SM SCT015 OVC035
      TEMPO 2303/2305 4SM SHRA BR BKN015
     FM230500 19008KT 6SM BR SCT008 OVC015
      TEMPO 2305/2308 BKN008
     FM230800 24007KT 4SM BR FEW010
     FM231300 27009KT P6SM SKC=

USA.gov is the U.S. government's official web portal to all federal, state and local government web resources and services.